sensor_id;sensor_type;location;lat;lon;timestamp;temperature;humidity
67101;DHT22;54019;61.746;16.106;2023-02-15T00:00:43;22.80;26.10
67101;DHT22;54019;61.746;16.106;2023-02-15T00:03:08;22.90;26.10
67101;DHT22;54019;61.746;16.106;2023-02-15T00:05:36;22.90;26.00
67101;DHT22;54019;61.746;16.106;2023-02-15T00:08:02;22.90;25.90
67101;DHT22;54019;61.746;16.106;2023-02-15T00:10:28;22.90;25.90
67101;DHT22;54019;61.746;16.106;2023-02-15T00:12:53;22.80;25.80
67101;DHT22;54019;61.746;16.106;2023-02-15T00:15:19;22.80;25.80
67101;DHT22;54019;61.746;16.106;2023-02-15T00:17:45;22.80;25.80
67101;DHT22;54019;61.746;16.106;2023-02-15T00:20:11;22.70;25.90
67101;DHT22;54019;61.746;16.106;2023-02-15T00:22:38;22.70;25.90
67101;DHT22;54019;61.746;16.106;2023-02-15T00:25:04;22.70;25.90
67101;DHT22;54019;61.746;16.106;2023-02-15T00:27:30;22.70;26.00
67101;DHT22;54019;61.746;16.106;2023-02-15T00:29:56;22.70;25.90
67101;DHT22;54019;61.746;16.106;2023-02-15T00:32:22;22.70;25.90
67101;DHT22;54019;61.746;16.106;2023-02-15T00:34:48;22.70;25.80
67101;DHT22;54019;61.746;16.106;2023-02-15T00:37:13;22.70;25.70
67101;DHT22;54019;61.746;16.106;2023-02-15T00:39:40;22.80;25.50
67101;DHT22;54019;61.746;16.106;2023-02-15T00:42:06;22.80;25.50
67101;DHT22;54019;61.746;16.106;2023-02-15T00:44:32;22.80;25.50
67101;DHT22;54019;61.746;16.106;2023-02-15T00:46:58;22.80;25.40
67101;DHT22;54019;61.746;16.106;2023-02-15T00:49:23;22.80;25.40
67101;DHT22;54019;61.746;16.106;2023-02-15T00:51:49;22.80;25.50
67101;DHT22;54019;61.746;16.106;2023-02-15T00:54:15;22.70;25.50
67101;DHT22;54019;61.746;16.106;2023-02-15T00:56:42;22.70;25.60
67101;DHT22;54019;61.746;16.106;2023-02-15T00:59:09;22.70;25.60
67101;DHT22;54019;61.746;16.106;2023-02-15T01:01:34;22.60;25.50
67101;DHT22;54019;61.746;16.106;2023-02-15T01:04:01;22.60;25.40
67101;DHT22;54019;61.746;16.106;2023-02-15T01:06:27;22.60;25.40
67101;DHT22;54019;61.746;16.106;2023-02-15T01:08:53;22.60;25.30
67101;DHT22;54019;61.746;16.106;2023-02-15T01:11:21;22.70;25.40
67101;DHT22;54019;61.746;16.106;2023-02-15T01:13:50;22.70;25.40
67101;DHT22;54019;61.746;16.106;2023-02-15T01:16:16;22.70;25.30
67101;DHT22;54019;61.746;16.106;2023-02-15T01:18:42;22.70;25.20
67101;DHT22;54019;61.746;16.106;2023-02-15T01:21:12;22.80;25.20
67101;DHT22;54019;61.746;16.106;2023-02-15T01:23:38;22.80;25.20
67101;DHT22;54019;61.746;16.106;2023-02-15T01:26:04;22.80;25.10
67101;DHT22;54019;61.746;16.106;2023-02-15T01:28:31;22.70;25.00
67101;DHT22;54019;61.746;16.106;2023-02-15T01:30:58;22.70;25.10
67101;DHT22;54019;61.746;16.106;2023-02-15T01:33:24;22.70;25.30
67101;DHT22;54019;61.746;16.106;2023-02-15T01:35:56;22.70;25.10
67101;DHT22;54019;61.746;16.106;2023-02-15T01:38:22;22.70;25.20
67101;DHT22;54019;61.746;16.106;2023-02-15T01:40:50;22.60;25.20
67101;DHT22;54019;61.746;16.106;2023-02-15T01:43:16;22.60;25.20
67101;DHT22;54019;61.746;16.106;2023-02-15T01:45:42;22.60;25.20
67101;DHT22;54019;61.746;16.106;2023-02-15T01:48:18;22.60;25.20
67101;DHT22;54019;61.746;16.106;2023-02-15T01:50:47;22.60;25.10
67101;DHT22;54019;61.746;16.106;2023-02-15T01:53:18;22.70;25.20
67101;DHT22;54019;61.746;16.106;2023-02-15T01:55:48;22.70;25.00
67101;DHT22;54019;61.746;16.106;2023-02-15T01:58:16;22.80;24.90
67101;DHT22;54019;61.746;16.106;2023-02-15T02:00:42;22.80;24.80
67101;DHT22;54019;61.746;16.106;2023-02-15T02:03:10;22.80;24.70
67101;DHT22;54019;61.746;16.106;2023-02-15T02:05:38;22.70;24.70
67101;DHT22;54019;61.746;16.106;2023-02-15T02:08:04;22.70;24.80
67101;DHT22;54019;61.746;16.106;2023-02-15T02:10:30;22.70;24.80
67101;DHT22;54019;61.746;16.106;2023-02-15T02:12:58;22.70;24.90
67101;DHT22;54019;61.746;16.106;2023-02-15T02:15:29;22.70;24.90
67101;DHT22;54019;61.746;16.106;2023-02-15T02:18:07;22.60;24.80
67101;DHT22;54019;61.746;16.106;2023-02-15T02:20:58;22.60;25.00
67101;DHT22;54019;61.746;16.106;2023-02-15T02:23:34;22.50;25.00
67101;DHT22;54019;61.746;16.106;2023-02-15T02:26:37;22.60;24.80
67101;DHT22;54019;61.746;16.106;2023-02-15T02:29:27;22.60;24.90
67101;DHT22;54019;61.746;16.106;2023-02-15T02:34:59;22.60;24.80
67101;DHT22;54019;61.746;16.106;2023-02-15T02:37:30;22.70;24.80
67101;DHT22;54019;61.746;16.106;2023-02-15T02:40:04;22.70;24.80
67101;DHT22;54019;61.746;16.106;2023-02-15T02:42:37;22.70;24.60
67101;DHT22;54019;61.746;16.106;2023-02-15T02:45:08;22.70;24.70
67101;DHT22;54019;61.746;16.106;2023-02-15T02:47:36;22.70;24.70
67101;DHT22;54019;61.746;16.106;2023-02-15T02:50:09;22.70;24.60
67101;DHT22;54019;61.746;16.106;2023-02-15T02:52:40;22.70;24.60
67101;DHT22;54019;61.746;16.106;2023-02-15T02:55:10;22.60;24.50
67101;DHT22;54019;61.746;16.106;2023-02-15T02:57:42;22.60;24.60
67101;DHT22;54019;61.746;16.106;2023-02-15T03:00:10;22.50;24.60
67101;DHT22;54019;61.746;16.106;2023-02-15T03:02:39;22.50;24.70
67101;DHT22;54019;61.746;16.106;2023-02-15T03:05:13;22.50;24.70
67101;DHT22;54019;61.746;16.106;2023-02-15T03:07:41;22.50;24.60
67101;DHT22;54019;61.746;16.106;2023-02-15T03:10:08;22.50;24.70
67101;DHT22;54019;61.746;16.106;2023-02-15T03:12:36;22.50;24.60
67101;DHT22;54019;61.746;16.106;2023-02-15T03:15:05;22.60;24.60
67101;DHT22;54019;61.746;16.106;2023-02-15T03:17:35;22.60;24.50
67101;DHT22;54019;61.746;16.106;2023-02-15T03:20:05;22.70;24.50
67101;DHT22;54019;61.746;16.106;2023-02-15T03:22:36;22.70;24.40
67101;DHT22;54019;61.746;16.106;2023-02-15T03:25:06;22.70;24.30
67101;DHT22;54019;61.746;16.106;2023-02-15T03:27:39;22.70;24.20
67101;DHT22;54019;61.746;16.106;2023-02-15T03:30:08;22.70;24.20
67101;DHT22;54019;61.746;16.106;2023-02-15T03:32:34;22.70;24.30
67101;DHT22;54019;61.746;16.106;2023-02-15T03:35:01;22.60;24.30
67101;DHT22;54019;61.746;16.106;2023-02-15T03:37:32;22.50;24.30
67101;DHT22;54019;61.746;16.106;2023-02-15T03:40:03;22.50;24.40
67101;DHT22;54019;61.746;16.106;2023-02-15T03:42:32;22.50;24.50
67101;DHT22;54019;61.746;16.106;2023-02-15T03:45:02;22.50;24.50
67101;DHT22;54019;61.746;16.106;2023-02-15T03:47:32;22.50;24.50
67101;DHT22;54019;61.746;16.106;2023-02-15T03:50:02;22.50;24.40
67101;DHT22;54019;61.746;16.106;2023-02-15T03:52:32;22.50;24.40
67101;DHT22;54019;61.746;16.106;2023-02-15T03:55:00;22.60;24.30
67101;DHT22;54019;61.746;16.106;2023-02-15T03:57:28;22.60;24.20
67101;DHT22;54019;61.746;16.106;2023-02-15T03:59:54;22.60;24.20
67101;DHT22;54019;61.746;16.106;2023-02-15T04:02:22;22.70;24.10
67101;DHT22;54019;61.746;16.106;2023-02-15T04:04:50;22.70;24.10
67101;DHT22;54019;61.746;16.106;2023-02-15T04:07:16;22.70;24.20
67101;DHT22;54019;61.746;16.106;2023-02-15T04:09:41;22.70;24.20
67101;DHT22;54019;61.746;16.106;2023-02-15T04:12:09;22.60;24.10
67101;DHT22;54019;61.746;16.106;2023-02-15T04:14:35;22.60;24.20
67101;DHT22;54019;61.746;16.106;2023-02-15T04:17:01;22.60;24.20
67101;DHT22;54019;61.746;16.106;2023-02-15T04:19:26;22.60;24.30
67101;DHT22;54019;61.746;16.106;2023-02-15T04:21:52;22.50;24.30
67101;DHT22;54019;61.746;16.106;2023-02-15T04:24:18;22.50;24.30
67101;DHT22;54019;61.746;16.106;2023-02-15T04:26:44;22.40;24.20
67101;DHT22;54019;61.746;16.106;2023-02-15T04:29:14;22.40;24.30
67101;DHT22;54019;61.746;16.106;2023-02-15T04:31:40;22.50;24.30
67101;DHT22;54019;61.746;16.106;2023-02-15T04:34:06;22.50;24.30
67101;DHT22;54019;61.746;16.106;2023-02-15T04:36:32;22.50;24.30
67101;DHT22;54019;61.746;16.106;2023-02-15T04:38:58;22.60;24.20
67101;DHT22;54019;61.746;16.106;2023-02-15T04:41:24;22.60;24.20
67101;DHT22;54019;61.746;16.106;2023-02-15T04:43:49;22.70;24.10
67101;DHT22;54019;61.746;16.106;2023-02-15T04:46:16;22.70;24.10
67101;DHT22;54019;61.746;16.106;2023-02-15T04:48:42;22.70;24.10
67101;DHT22;54019;61.746;16.106;2023-02-15T04:51:08;22.70;24.00
67101;DHT22;54019;61.746;16.106;2023-02-15T04:53:34;22.60;24.00
67101;DHT22;54019;61.746;16.106;2023-02-15T04:56:00;22.60;24.00
67101;DHT22;54019;61.746;16.106;2023-02-15T04:58:26;22.50;24.00
67101;DHT22;54019;61.746;16.106;2023-02-15T05:00:54;22.50;24.10
67101;DHT22;54019;61.746;16.106;2023-02-15T05:03:22;22.40;24.10
67101;DHT22;54019;61.746;16.106;2023-02-15T05:05:48;22.40;24.10
67101;DHT22;54019;61.746;16.106;2023-02-15T05:08:14;22.50;24.20
67101;DHT22;54019;61.746;16.106;2023-02-15T05:10:40;22.40;24.10
67101;DHT22;54019;61.746;16.106;2023-02-15T05:13:06;22.50;24.20
67101;DHT22;54019;61.746;16.106;2023-02-15T05:15:31;22.50;24.10
67101;DHT22;54019;61.746;16.106;2023-02-15T05:17:57;22.50;24.00
67101;DHT22;54019;61.746;16.106;2023-02-15T05:20:25;22.60;23.90
67101;DHT22;54019;61.746;16.106;2023-02-15T05:22:53;22.60;23.90
67101;DHT22;54019;61.746;16.106;2023-02-15T05:25:19;22.60;23.80
67101;DHT22;54019;61.746;16.106;2023-02-15T05:27:45;22.60;23.90
67101;DHT22;54019;61.746;16.106;2023-02-15T05:30:12;22.60;24.00
67101;DHT22;54019;61.746;16.106;2023-02-15T05:32:39;22.60;23.90
67101;DHT22;54019;61.746;16.106;2023-02-15T05:35:05;22.60;23.90
67101;DHT22;54019;61.746;16.106;2023-02-15T05:37:32;22.50;24.20
67101;DHT22;54019;61.746;16.106;2023-02-15T05:39:58;22.60;24.20
67101;DHT22;54019;61.746;16.106;2023-02-15T05:42:24;22.50;24.70
67101;DHT22;54019;61.746;16.106;2023-02-15T05:44:49;22.60;25.20
67101;DHT22;54019;61.746;16.106;2023-02-15T05:47:15;22.60;24.70
67101;DHT22;54019;61.746;16.106;2023-02-15T05:49:41;22.60;24.70
67101;DHT22;54019;61.746;16.106;2023-02-15T05:52:08;22.70;25.40
67101;DHT22;54019;61.746;16.106;2023-02-15T05:54:35;22.80;25.00
67101;DHT22;54019;61.746;16.106;2023-02-15T05:57:01;22.90;25.20
67101;DHT22;54019;61.746;16.106;2023-02-15T05:59:26;23.00;25.10
67101;DHT22;54019;61.746;16.106;2023-02-15T06:01:52;23.10;24.90
67101;DHT22;54019;61.746;16.106;2023-02-15T06:04:18;23.10;24.70
67101;DHT22;54019;61.746;16.106;2023-02-15T06:06:44;23.10;24.30
67101;DHT22;54019;61.746;16.106;2023-02-15T06:09:10;23.10;24.40
67101;DHT22;54019;61.746;16.106;2023-02-15T06:11:37;23.00;24.40
67101;DHT22;54019;61.746;16.106;2023-02-15T06:14:03;23.00;24.60
67101;DHT22;54019;61.746;16.106;2023-02-15T06:16:29;23.00;24.70
67101;DHT22;54019;61.746;16.106;2023-02-15T06:18:55;22.90;24.70
67101;DHT22;54019;61.746;16.106;2023-02-15T06:21:21;22.80;24.80
67101;DHT22;54019;61.746;16.106;2023-02-15T06:23:47;22.70;24.80
67101;DHT22;54019;61.746;16.106;2023-02-15T06:26:13;22.70;24.70
67101;DHT22;54019;61.746;16.106;2023-02-15T06:28:40;22.60;24.50
67101;DHT22;54019;61.746;16.106;2023-02-15T06:31:05;22.60;24.50
67101;DHT22;54019;61.746;16.106;2023-02-15T06:33:31;22.70;24.50
67101;DHT22;54019;61.746;16.106;2023-02-15T06:35:57;22.70;24.30
67101;DHT22;54019;61.746;16.106;2023-02-15T06:38:23;22.70;24.20
67101;DHT22;54019;61.746;16.106;2023-02-15T06:40:49;22.70;24.10
67101;DHT22;54019;61.746;16.106;2023-02-15T06:43:14;22.70;24.00
67101;DHT22;54019;61.746;16.106;2023-02-15T06:45:42;22.70;23.90
67101;DHT22;54019;61.746;16.106;2023-02-15T06:48:08;22.70;23.90
67101;DHT22;54019;61.746;16.106;2023-02-15T06:50:34;22.60;23.80
67101;DHT22;54019;61.746;16.106;2023-02-15T06:53:00;22.60;24.20
67101;DHT22;54019;61.746;16.106;2023-02-15T06:55:26;22.60;24.70
67101;DHT22;54019;61.746;16.106;2023-02-15T06:57:51;22.60;24.80
67101;DHT22;54019;61.746;16.106;2023-02-15T07:00:18;22.60;25.20
67101;DHT22;54019;61.746;16.106;2023-02-15T07:02:45;22.60;25.10
67101;DHT22;54019;61.746;16.106;2023-02-15T07:05:11;22.60;24.90
67101;DHT22;54019;61.746;16.106;2023-02-15T07:07:37;22.60;24.90
67101;DHT22;54019;61.746;16.106;2023-02-15T07:10:03;22.60;24.80
67101;DHT22;54019;61.746;16.106;2023-02-15T07:12:29;22.60;24.60
67101;DHT22;54019;61.746;16.106;2023-02-15T07:14:55;22.60;24.40
67101;DHT22;54019;61.746;16.106;2023-02-15T07:17:21;22.60;24.40
67101;DHT22;54019;61.746;16.106;2023-02-15T07:19:48;22.60;24.30
67101;DHT22;54019;61.746;16.106;2023-02-15T07:22:14;22.70;24.30
67101;DHT22;54019;61.746;16.106;2023-02-15T07:24:40;22.70;24.10
67101;DHT22;54019;61.746;16.106;2023-02-15T07:27:06;22.70;24.10
67101;DHT22;54019;61.746;16.106;2023-02-15T07:29:32;22.70;24.00
67101;DHT22;54019;61.746;16.106;2023-02-15T07:31:58;22.70;24.00
67101;DHT22;54019;61.746;16.106;2023-02-15T07:34:24;22.70;24.00
67101;DHT22;54019;61.746;16.106;2023-02-15T07:36:52;22.60;24.00
67101;DHT22;54019;61.746;16.106;2023-02-15T07:39:17;22.60;23.90
67101;DHT22;54019;61.746;16.106;2023-02-15T07:41:43;22.50;24.10
67101;DHT22;54019;61.746;16.106;2023-02-15T07:44:11;22.50;24.10
67101;DHT22;54019;61.746;16.106;2023-02-15T07:46:37;22.50;24.10
67101;DHT22;54019;61.746;16.106;2023-02-15T07:49:03;22.50;24.10
67101;DHT22;54019;61.746;16.106;2023-02-15T07:51:29;22.50;24.10
67101;DHT22;54019;61.746;16.106;2023-02-15T07:53:56;22.40;27.50
67101;DHT22;54019;61.746;16.106;2023-02-15T07:56:22;22.50;29.10
67101;DHT22;54019;61.746;16.106;2023-02-15T07:58:47;22.40;26.60
67101;DHT22;54019;61.746;16.106;2023-02-15T08:01:13;22.40;26.90
67101;DHT22;54019;61.746;16.106;2023-02-15T08:03:39;22.40;26.50
67101;DHT22;54019;61.746;16.106;2023-02-15T08:06:06;22.40;26.60
67101;DHT22;54019;61.746;16.106;2023-02-15T08:08:33;22.30;26.40
67101;DHT22;54019;61.746;16.106;2023-02-15T08:11:02;22.20;26.30
67101;DHT22;54019;61.746;16.106;2023-02-15T08:13:29;22.20;26.20
67101;DHT22;54019;61.746;16.106;2023-02-15T08:15:54;22.20;26.40
67101;DHT22;54019;61.746;16.106;2023-02-15T08:18:20;22.10;26.50
67101;DHT22;54019;61.746;16.106;2023-02-15T08:20:49;22.20;26.90
67101;DHT22;54019;61.746;16.106;2023-02-15T08:23:15;22.20;26.10
67101;DHT22;54019;61.746;16.106;2023-02-15T08:25:41;22.30;26.30
67101;DHT22;54019;61.746;16.106;2023-02-15T08:28:10;22.40;26.30
67101;DHT22;54019;61.746;16.106;2023-02-15T08:30:36;22.50;26.40
67101;DHT22;54019;61.746;16.106;2023-02-15T08:33:02;22.50;26.20
67101;DHT22;54019;61.746;16.106;2023-02-15T08:35:28;22.60;26.20
67101;DHT22;54019;61.746;16.106;2023-02-15T08:37:54;22.60;26.00
67101;DHT22;54019;61.746;16.106;2023-02-15T08:40:20;22.50;25.80
67101;DHT22;54019;61.746;16.106;2023-02-15T08:42:46;22.60;26.00
67101;DHT22;54019;61.746;16.106;2023-02-15T08:45:13;22.50;26.30
67101;DHT22;54019;61.746;16.106;2023-02-15T08:47:38;22.50;26.40
67101;DHT22;54019;61.746;16.106;2023-02-15T08:50:05;22.40;26.40
67101;DHT22;54019;61.746;16.106;2023-02-15T08:52:31;22.40;26.20
67101;DHT22;54019;61.746;16.106;2023-02-15T08:54:57;22.40;26.20
67101;DHT22;54019;61.746;16.106;2023-02-15T08:57:23;22.40;26.20
67101;DHT22;54019;61.746;16.106;2023-02-15T08:59:48;22.30;26.10
67101;DHT22;54019;61.746;16.106;2023-02-15T09:02:16;22.40;26.20
67101;DHT22;54019;61.746;16.106;2023-02-15T09:04:41;22.40;26.20
67101;DHT22;54019;61.746;16.106;2023-02-15T09:07:07;22.40;26.30
67101;DHT22;54019;61.746;16.106;2023-02-15T09:09:33;22.40;26.30
67101;DHT22;54019;61.746;16.106;2023-02-15T09:11:59;22.50;26.40
67101;DHT22;54019;61.746;16.106;2023-02-15T09:14:25;22.50;26.30
67101;DHT22;54019;61.746;16.106;2023-02-15T09:16:52;22.50;26.10
67101;DHT22;54019;61.746;16.106;2023-02-15T09:19:21;22.50;26.10
67101;DHT22;54019;61.746;16.106;2023-02-15T09:21:48;22.50;26.20
67101;DHT22;54019;61.746;16.106;2023-02-15T09:24:14;22.50;26.60
67101;DHT22;54019;61.746;16.106;2023-02-15T09:26:42;22.50;27.30
67101;DHT22;54019;61.746;16.106;2023-02-15T09:29:09;22.50;27.50
67101;DHT22;54019;61.746;16.106;2023-02-15T09:31:41;22.50;28.00
67101;DHT22;54019;61.746;16.106;2023-02-15T09:34:07;22.50;28.90
67101;DHT22;54019;61.746;16.106;2023-02-15T09:36:36;22.50;29.10
67101;DHT22;54019;61.746;16.106;2023-02-15T09:39:07;22.40;28.90
67101;DHT22;54019;61.746;16.106;2023-02-15T09:44:52;22.50;28.60
67101;DHT22;54019;61.746;16.106;2023-02-15T09:47:34;22.50;28.10
67101;DHT22;54019;61.746;16.106;2023-02-15T09:50:10;22.60;28.40
67101;DHT22;54019;61.746;16.106;2023-02-15T09:52:55;22.60;27.80
67101;DHT22;54019;61.746;16.106;2023-02-15T09:55:38;22.60;27.70
67101;DHT22;54019;61.746;16.106;2023-02-15T09:58:12;22.60;27.50
67101;DHT22;54019;61.746;16.106;2023-02-15T10:00:49;22.70;27.30
67101;DHT22;54019;61.746;16.106;2023-02-15T10:03:26;22.70;27.80
67101;DHT22;54019;61.746;16.106;2023-02-15T10:06:10;22.70;28.10
67101;DHT22;54019;61.746;16.106;2023-02-15T10:12:08;22.70;28.70
67101;DHT22;54019;61.746;16.106;2023-02-15T10:14:52;22.60;28.90
67101;DHT22;54019;61.746;16.106;2023-02-15T10:17:29;22.60;29.40
67101;DHT22;54019;61.746;16.106;2023-02-15T10:20:08;22.60;29.90
67101;DHT22;54019;61.746;16.106;2023-02-15T10:22:46;22.60;29.90
67101;DHT22;54019;61.746;16.106;2023-02-15T10:25:25;22.70;29.80
67101;DHT22;54019;61.746;16.106;2023-02-15T10:27:53;22.80;29.30
67101;DHT22;54019;61.746;16.106;2023-02-15T10:30:22;22.80;29.30
67101;DHT22;54019;61.746;16.106;2023-02-15T10:32:57;22.80;28.70
67101;DHT22;54019;61.746;16.106;2023-02-15T10:35:31;22.80;28.20
67101;DHT22;54019;61.746;16.106;2023-02-15T10:38:17;22.80;28.30
67101;DHT22;54019;61.746;16.106;2023-02-15T10:40:52;22.80;28.00
67101;DHT22;54019;61.746;16.106;2023-02-15T10:46:27;22.70;27.80
67101;DHT22;54019;61.746;16.106;2023-02-15T10:52:11;22.70;27.80
67101;DHT22;54019;61.746;16.106;2023-02-15T10:54:44;22.70;27.40
67101;DHT22;54019;61.746;16.106;2023-02-15T10:57:18;22.60;27.40
67101;DHT22;54019;61.746;16.106;2023-02-15T11:00:02;22.60;27.20
67101;DHT22;54019;61.746;16.106;2023-02-15T11:02:40;22.60;26.70
67101;DHT22;54019;61.746;16.106;2023-02-15T11:05:31;22.60;26.80
67101;DHT22;54019;61.746;16.106;2023-02-15T11:08:03;22.60;26.90
67101;DHT22;54019;61.746;16.106;2023-02-15T11:10:36;22.60;26.70
67101;DHT22;54019;61.746;16.106;2023-02-15T11:13:06;22.70;26.80
67101;DHT22;54019;61.746;16.106;2023-02-15T11:15:38;22.70;26.70
67101;DHT22;54019;61.746;16.106;2023-02-15T11:18:10;22.80;26.40
67101;DHT22;54019;61.746;16.106;2023-02-15T11:20:41;22.80;26.40
67101;DHT22;54019;61.746;16.106;2023-02-15T11:23:13;22.80;26.20
67101;DHT22;54019;61.746;16.106;2023-02-15T11:25:40;22.70;26.00
67101;DHT22;54019;61.746;16.106;2023-02-15T11:28:11;22.70;25.80
67101;DHT22;54019;61.746;16.106;2023-02-15T11:30:47;22.70;25.80
67101;DHT22;54019;61.746;16.106;2023-02-15T11:33:16;22.70;25.80
67101;DHT22;54019;61.746;16.106;2023-02-15T11:35:50;22.60;25.70
67101;DHT22;54019;61.746;16.106;2023-02-15T11:38:20;22.60;25.70
67101;DHT22;54019;61.746;16.106;2023-02-15T11:40:50;22.60;25.90
67101;DHT22;54019;61.746;16.106;2023-02-15T11:43:20;22.50;25.90
67101;DHT22;54019;61.746;16.106;2023-02-15T11:45:50;22.50;25.70
67101;DHT22;54019;61.746;16.106;2023-02-15T11:48:16;22.50;26.00
67101;DHT22;54019;61.746;16.106;2023-02-15T11:50:42;22.50;26.00
67101;DHT22;54019;61.746;16.106;2023-02-15T11:53:12;22.60;25.70
67101;DHT22;54019;61.746;16.106;2023-02-15T11:55:39;22.60;25.80
67101;DHT22;54019;61.746;16.106;2023-02-15T11:58:13;22.70;25.60
67101;DHT22;54019;61.746;16.106;2023-02-15T12:00:43;22.70;25.60
67101;DHT22;54019;61.746;16.106;2023-02-15T12:03:15;22.70;25.50
67101;DHT22;54019;61.746;16.106;2023-02-15T12:05:45;22.70;25.30
67101;DHT22;54019;61.746;16.106;2023-02-15T12:08:16;22.70;25.20
67101;DHT22;54019;61.746;16.106;2023-02-15T12:10:51;22.70;25.30
67101;DHT22;54019;61.746;16.106;2023-02-15T12:13:20;22.60;25.20
67101;DHT22;54019;61.746;16.106;2023-02-15T12:15:47;22.60;25.40
67101;DHT22;54019;61.746;16.106;2023-02-15T12:18:35;22.60;25.20
67101;DHT22;54019;61.746;16.106;2023-02-15T12:21:03;22.50;25.40
67101;DHT22;54019;61.746;16.106;2023-02-15T12:23:32;22.50;25.30
67101;DHT22;54019;61.746;16.106;2023-02-15T12:25:59;22.50;25.50
67101;DHT22;54019;61.746;16.106;2023-02-15T12:28:29;22.40;25.70
67101;DHT22;54019;61.746;16.106;2023-02-15T12:30:56;22.40;25.70
67101;DHT22;54019;61.746;16.106;2023-02-15T12:33:28;22.40;25.60
67101;DHT22;54019;61.746;16.106;2023-02-15T12:35:57;22.50;25.60
67101;DHT22;54019;61.746;16.106;2023-02-15T12:38:25;22.50;25.50
67101;DHT22;54019;61.746;16.106;2023-02-15T12:40:58;22.60;25.50
67101;DHT22;54019;61.746;16.106;2023-02-15T12:43:29;22.60;25.10
67101;DHT22;54019;61.746;16.106;2023-02-15T12:46:14;22.70;25.10
67101;DHT22;54019;61.746;16.106;2023-02-15T12:48:46;22.70;25.40
67101;DHT22;54019;61.746;16.106;2023-02-15T12:51:15;22.60;25.10
67101;DHT22;54019;61.746;16.106;2023-02-15T12:53:41;22.60;25.20
67101;DHT22;54019;61.746;16.106;2023-02-15T12:56:09;22.60;25.20
67101;DHT22;54019;61.746;16.106;2023-02-15T12:58:36;22.50;25.10
67101;DHT22;54019;61.746;16.106;2023-02-15T13:01:09;22.50;25.40
67101;DHT22;54019;61.746;16.106;2023-02-15T13:03:36;22.50;25.60
67101;DHT22;54019;61.746;16.106;2023-02-15T13:06:05;22.40;25.30
67101;DHT22;54019;61.746;16.106;2023-02-15T13:08:34;22.50;25.30
67101;DHT22;54019;61.746;16.106;2023-02-15T13:11:04;22.40;25.10
67101;DHT22;54019;61.746;16.106;2023-02-15T13:13:31;22.40;25.30
67101;DHT22;54019;61.746;16.106;2023-02-15T13:15:59;22.40;25.40
67101;DHT22;54019;61.746;16.106;2023-02-15T13:18:31;22.40;25.40
67101;DHT22;54019;61.746;16.106;2023-02-15T13:21:00;22.40;25.30
67101;DHT22;54019;61.746;16.106;2023-02-15T13:23:33;22.50;25.30
67101;DHT22;54019;61.746;16.106;2023-02-15T13:26:03;22.50;25.00
67101;DHT22;54019;61.746;16.106;2023-02-15T13:28:37;22.60;25.10
67101;DHT22;54019;61.746;16.106;2023-02-15T13:31:12;22.60;25.10
67101;DHT22;54019;61.746;16.106;2023-02-15T13:33:38;22.60;24.90
67101;DHT22;54019;61.746;16.106;2023-02-15T13:36:11;22.60;25.00
67101;DHT22;54019;61.746;16.106;2023-02-15T13:38:58;22.60;25.10
67101;DHT22;54019;61.746;16.106;2023-02-15T13:41:29;22.60;25.10
67101;DHT22;54019;61.746;16.106;2023-02-15T13:44:02;22.50;25.10
67101;DHT22;54019;61.746;16.106;2023-02-15T13:46:48;22.50;25.20
67101;DHT22;54019;61.746;16.106;2023-02-15T13:49:24;22.50;25.10
67101;DHT22;54019;61.746;16.106;2023-02-15T13:51:59;22.50;25.20
67101;DHT22;54019;61.746;16.106;2023-02-15T13:57:56;22.50;25.20
67101;DHT22;54019;61.746;16.106;2023-02-15T14:00:30;22.50;25.30
67101;DHT22;54019;61.746;16.106;2023-02-15T14:03:12;22.40;25.20
67101;DHT22;54019;61.746;16.106;2023-02-15T14:06:05;22.50;25.10
67101;DHT22;54019;61.746;16.106;2023-02-15T14:08:44;22.60;24.80
67101;DHT22;54019;61.746;16.106;2023-02-15T14:11:17;22.70;25.40
67101;DHT22;54019;61.746;16.106;2023-02-15T14:16:41;22.70;24.60
67101;DHT22;54019;61.746;16.106;2023-02-15T14:19:16;22.70;24.80
67101;DHT22;54019;61.746;16.106;2023-02-15T14:21:49;22.70;24.80
67101;DHT22;54019;61.746;16.106;2023-02-15T14:24:24;22.60;24.80
67101;DHT22;54019;61.746;16.106;2023-02-15T14:26:59;22.60;24.80
67101;DHT22;54019;61.746;16.106;2023-02-15T14:32:26;22.60;24.80
67101;DHT22;54019;61.746;16.106;2023-02-15T14:34:55;22.60;24.80
67101;DHT22;54019;61.746;16.106;2023-02-15T14:37:31;22.50;24.80
67101;DHT22;54019;61.746;16.106;2023-02-15T14:40:03;22.50;24.80
67101;DHT22;54019;61.746;16.106;2023-02-15T14:42:37;22.50;24.80
67101;DHT22;54019;61.746;16.106;2023-02-15T14:45:17;22.50;24.70
67101;DHT22;54019;61.746;16.106;2023-02-15T14:47:48;22.60;24.80
67101;DHT22;54019;61.746;16.106;2023-02-15T14:50:39;22.60;24.80
67101;DHT22;54019;61.746;16.106;2023-02-15T14:53:16;22.70;24.70
67101;DHT22;54019;61.746;16.106;2023-02-15T14:55:42;22.80;24.60
67101;DHT22;54019;61.746;16.106;2023-02-15T14:58:10;22.80;24.70
67101;DHT22;54019;61.746;16.106;2023-02-15T15:00:40;22.80;24.60
67101;DHT22;54019;61.746;16.106;2023-02-15T15:03:20;22.80;24.70
67101;DHT22;54019;61.746;16.106;2023-02-15T15:05:50;22.70;24.70
67101;DHT22;54019;61.746;16.106;2023-02-15T15:08:25;22.70;24.70
67101;DHT22;54019;61.746;16.106;2023-02-15T15:10:52;22.70;24.80
67101;DHT22;54019;61.746;16.106;2023-02-15T15:16:48;22.60;24.80
67101;DHT22;54019;61.746;16.106;2023-02-15T15:22:31;22.60;25.00
67101;DHT22;54019;61.746;16.106;2023-02-15T15:24:57;22.50;25.10
67101;DHT22;54019;61.746;16.106;2023-02-15T15:27:47;22.50;25.10
67101;DHT22;54019;61.746;16.106;2023-02-15T15:30:47;22.50;24.90
67101;DHT22;54019;61.746;16.106;2023-02-15T15:33:27;22.60;24.70
67101;DHT22;54019;61.746;16.106;2023-02-15T15:36:10;22.60;24.70
67101;DHT22;54019;61.746;16.106;2023-02-15T15:38:46;22.60;24.60
67101;DHT22;54019;61.746;16.106;2023-02-15T15:41:18;22.70;24.70
67101;DHT22;54019;61.746;16.106;2023-02-15T15:47:18;22.60;24.70
67101;DHT22;54019;61.746;16.106;2023-02-15T15:49:55;22.60;24.50
67101;DHT22;54019;61.746;16.106;2023-02-15T15:52:21;22.50;24.40
67101;DHT22;54019;61.746;16.106;2023-02-15T15:54:50;22.50;24.50
67101;DHT22;54019;61.746;16.106;2023-02-15T15:57:25;22.40;24.40
67101;DHT22;54019;61.746;16.106;2023-02-15T15:59:53;22.40;24.30
67101;DHT22;54019;61.746;16.106;2023-02-15T16:02:20;22.40;24.50
67101;DHT22;54019;61.746;16.106;2023-02-15T16:04:46;22.40;24.50